sensor_id;sensor_type;location;lat;lon;timestamp;P1;durP1;ratioP1;P2;durP2;ratioP2
66593;SDS011;53450;42.584;23.366;2023-06-04T00:00:11;16.40;;;7.90;;
66593;SDS011;53450;42.584;23.366;2023-06-04T00:03:05;14.30;;;7.93;;
66593;SDS011;53450;42.584;23.366;2023-06-04T00:05:56;8.23;;;7.03;;
66593;SDS011;53450;42.584;23.366;2023-06-04T00:08:22;15.70;;;8.30;;
66593;SDS011;53450;42.584;23.366;2023-06-04T00:10:48;12.10;;;8.63;;
66593;SDS011;53450;42.584;23.366;2023-06-04T00:13:13;10.90;;;8.70;;
66593;SDS011;53450;42.584;23.366;2023-06-04T00:15:39;9.25;;;8.30;;
66593;SDS011;53450;42.584;23.366;2023-06-04T00:18:05;20.77;;;9.15;;
66593;SDS011;53450;42.584;23.366;2023-06-04T00:20:30;10.77;;;8.27;;
66593;SDS011;53450;42.584;23.366;2023-06-04T00:22:56;16.23;;;8.45;;
66593;SDS011;53450;42.584;23.366;2023-06-04T00:25:22;10.43;;;8.60;;
66593;SDS011;53450;42.584;23.366;2023-06-04T00:27:47;14.85;;;8.50;;
66593;SDS011;53450;42.584;23.366;2023-06-04T00:30:13;19.55;;;8.88;;
66593;SDS011;53450;42.584;23.366;2023-06-04T00:32:39;11.57;;;8.75;;
66593;SDS011;53450;42.584;23.366;2023-06-04T00:35:05;15.27;;;9.73;;
66593;SDS011;53450;42.584;23.366;2023-06-04T00:37:31;11.02;;;8.95;;
66593;SDS011;53450;42.584;23.366;2023-06-04T00:39:57;14.45;;;7.85;;
66593;SDS011;53450;42.584;23.366;2023-06-04T00:42:24;9.50;;;7.50;;
66593;SDS011;53450;42.584;23.366;2023-06-04T00:44:49;9.68;;;7.13;;
66593;SDS011;53450;42.584;23.366;2023-06-04T00:47:15;10.45;;;7.60;;
66593;SDS011;53450;42.584;23.366;2023-06-04T00:49:42;9.63;;;7.85;;
66593;SDS011;53450;42.584;23.366;2023-06-04T00:52:08;11.32;;;8.02;;
66593;SDS011;53450;42.584;23.366;2023-06-04T00:54:35;10.10;;;7.93;;
66593;SDS011;53450;42.584;23.366;2023-06-04T00:57:02;12.55;;;8.68;;
66593;SDS011;53450;42.584;23.366;2023-06-04T00:59:29;13.88;;;8.90;;
66593;SDS011;53450;42.584;23.366;2023-06-04T01:07:42;11.05;;;8.27;;
66593;SDS011;53450;42.584;23.366;2023-06-04T01:10:36;19.58;;;8.82;;
66593;SDS011;53450;42.584;23.366;2023-06-04T01:13:02;15.30;;;8.45;;
66593;SDS011;53450;42.584;23.366;2023-06-04T01:15:27;13.77;;;7.65;;
66593;SDS011;53450;42.584;23.366;2023-06-04T01:17:54;9.93;;;7.85;;
66593;SDS011;53450;42.584;23.366;2023-06-04T01:20:36;8.50;;;7.63;;
66593;SDS011;53450;42.584;23.366;2023-06-04T01:25:50;13.15;;;8.35;;
66593;SDS011;53450;42.584;23.366;2023-06-04T01:28:16;11.57;;;8.27;;
66593;SDS011;53450;42.584;23.366;2023-06-04T01:31:10;12.43;;;9.65;;
66593;SDS011;53450;42.584;23.366;2023-06-04T01:33:37;11.52;;;9.68;;
66593;SDS011;53450;42.584;23.366;2023-06-04T01:36:03;13.27;;;9.52;;
66593;SDS011;53450;42.584;23.366;2023-06-04T01:38:29;11.70;;;9.93;;
66593;SDS011;53450;42.584;23.366;2023-06-04T01:40:54;12.07;;;9.82;;
66593;SDS011;53450;42.584;23.366;2023-06-04T01:43:22;13.80;;;10.48;;
66593;SDS011;53450;42.584;23.366;2023-06-04T01:45:47;14.95;;;10.27;;
66593;SDS011;53450;42.584;23.366;2023-06-04T01:48:13;12.68;;;10.70;;
66593;SDS011;53450;42.584;23.366;2023-06-04T01:50:39;17.38;;;13.70;;
66593;SDS011;53450;42.584;23.366;2023-06-04T01:53:07;28.27;;;16.23;;
66593;SDS011;53450;42.584;23.366;2023-06-04T01:55:33;17.88;;;13.85;;
66593;SDS011;53450;42.584;23.366;2023-06-04T01:57:59;16.85;;;13.10;;
66593;SDS011;53450;42.584;23.366;2023-06-04T02:00:26;12.88;;;10.80;;
66593;SDS011;53450;42.584;23.366;2023-06-04T02:02:51;10.75;;;8.15;;
66593;SDS011;53450;42.584;23.366;2023-06-04T02:05:18;10.45;;;7.55;;
66593;SDS011;53450;42.584;23.366;2023-06-04T02:07:45;9.75;;;6.40;;
66593;SDS011;53450;42.584;23.366;2023-06-04T02:10:16;8.70;;;7.40;;
66593;SDS011;53450;42.584;23.366;2023-06-04T02:12:53;6.72;;;5.93;;
66593;SDS011;53450;42.584;23.366;2023-06-04T02:15:23;5.35;;;4.78;;
66593;SDS011;53450;42.584;23.366;2023-06-04T02:17:49;7.28;;;5.53;;
66593;SDS011;53450;42.584;23.366;2023-06-04T02:20:16;12.35;;;5.72;;
66593;SDS011;53450;42.584;23.366;2023-06-04T02:22:42;5.57;;;4.85;;
66593;SDS011;53450;42.584;23.366;2023-06-04T02:25:08;5.93;;;5.28;;
66593;SDS011;53450;42.584;23.366;2023-06-04T02:27:36;6.50;;;5.90;;
66593;SDS011;53450;42.584;23.366;2023-06-04T02:30:03;5.53;;;5.03;;
66593;SDS011;53450;42.584;23.366;2023-06-04T02:32:30;7.68;;;5.18;;
66593;SDS011;53450;42.584;23.366;2023-06-04T02:35:21;6.80;;;4.97;;
66593;SDS011;53450;42.584;23.366;2023-06-04T02:37:48;7.20;;;4.88;;
66593;SDS011;53450;42.584;23.366;2023-06-04T02:40:14;9.70;;;5.75;;
66593;SDS011;53450;42.584;23.366;2023-06-04T02:42:40;5.78;;;5.22;;
66593;SDS011;53450;42.584;23.366;2023-06-04T02:45:06;6.18;;;5.57;;
66593;SDS011;53450;42.584;23.366;2023-06-04T02:47:32;7.20;;;6.50;;
66593;SDS011;53450;42.584;23.366;2023-06-04T02:49:58;10.27;;;6.40;;
66593;SDS011;53450;42.584;23.366;2023-06-04T02:52:48;6.97;;;6.03;;
66593;SDS011;53450;42.584;23.366;2023-06-04T02:55:40;6.85;;;6.00;;
66593;SDS011;53450;42.584;23.366;2023-06-04T02:58:07;7.97;;;6.18;;
66593;SDS011;53450;42.584;23.366;2023-06-04T03:00:34;12.60;;;6.00;;
66593;SDS011;53450;42.584;23.366;2023-06-04T03:03:00;11.30;;;7.03;;
66593;SDS011;53450;42.584;23.366;2023-06-04T03:05:26;9.38;;;6.53;;
66593;SDS011;53450;42.584;23.366;2023-06-04T03:07:52;21.15;;;7.25;;
66593;SDS011;53450;42.584;23.366;2023-06-04T03:10:18;8.52;;;7.18;;
66593;SDS011;53450;42.584;23.366;2023-06-04T03:12:44;9.13;;;7.30;;
66593;SDS011;53450;42.584;23.366;2023-06-04T03:15:10;10.27;;;6.45;;
66593;SDS011;53450;42.584;23.366;2023-06-04T03:17:36;10.85;;;6.60;;
66593;SDS011;53450;42.584;23.366;2023-06-04T03:20:02;7.95;;;6.57;;
66593;SDS011;53450;42.584;23.366;2023-06-04T03:22:29;7.60;;;6.10;;
66593;SDS011;53450;42.584;23.366;2023-06-04T03:24:55;14.88;;;6.82;;
66593;SDS011;53450;42.584;23.366;2023-06-04T03:27:21;6.93;;;6.22;;
66593;SDS011;53450;42.584;23.366;2023-06-04T03:29:46;7.15;;;6.45;;
66593;SDS011;53450;42.584;23.366;2023-06-04T03:32:15;7.53;;;6.78;;
66593;SDS011;53450;42.584;23.366;2023-06-04T03:34:42;7.95;;;6.20;;
66593;SDS011;53450;42.584;23.366;2023-06-04T03:37:07;7.20;;;6.38;;
66593;SDS011;53450;42.584;23.366;2023-06-04T03:39:34;8.35;;;6.20;;
66593;SDS011;53450;42.584;23.366;2023-06-04T03:42:03;8.70;;;7.38;;
66593;SDS011;53450;42.584;23.366;2023-06-04T03:44:28;10.70;;;8.80;;
66593;SDS011;53450;42.584;23.366;2023-06-04T03:46:54;11.23;;;9.82;;
66593;SDS011;53450;42.584;23.366;2023-06-04T03:49:20;13.50;;;10.00;;
66593;SDS011;53450;42.584;23.366;2023-06-04T03:51:48;12.55;;;8.18;;
66593;SDS011;53450;42.584;23.366;2023-06-04T03:54:14;10.50;;;8.75;;
66593;SDS011;53450;42.584;23.366;2023-06-04T03:56:45;11.50;;;8.73;;
66593;SDS011;53450;42.584;23.366;2023-06-04T03:59:11;11.55;;;8.60;;
66593;SDS011;53450;42.584;23.366;2023-06-04T04:01:37;10.57;;;8.90;;
66593;SDS011;53450;42.584;23.366;2023-06-04T04:04:07;9.00;;;8.10;;
66593;SDS011;53450;42.584;23.366;2023-06-04T04:06:33;13.93;;;9.45;;
66593;SDS011;53450;42.584;23.366;2023-06-04T04:08:58;9.23;;;8.15;;
66593;SDS011;53450;42.584;23.366;2023-06-04T04:11:25;11.30;;;8.13;;
66593;SDS011;53450;42.584;23.366;2023-06-04T04:13:51;11.25;;;8.90;;
66593;SDS011;53450;42.584;23.366;2023-06-04T04:16:18;12.18;;;9.13;;
66593;SDS011;53450;42.584;23.366;2023-06-04T04:18:44;17.02;;;10.20;;
66593;SDS011;53450;42.584;23.366;2023-06-04T04:21:10;13.43;;;9.95;;
66593;SDS011;53450;42.584;23.366;2023-06-04T04:23:37;16.13;;;11.65;;
66593;SDS011;53450;42.584;23.366;2023-06-04T04:26:06;15.07;;;12.02;;
66593;SDS011;53450;42.584;23.366;2023-06-04T04:28:33;20.95;;;13.00;;
66593;SDS011;53450;42.584;23.366;2023-06-04T04:31:00;22.42;;;11.85;;
66593;SDS011;53450;42.584;23.366;2023-06-04T04:33:29;15.07;;;11.98;;
66593;SDS011;53450;42.584;23.366;2023-06-04T04:35:59;14.13;;;11.73;;
66593;SDS011;53450;42.584;23.366;2023-06-04T04:38:28;17.52;;;13.13;;
66593;SDS011;53450;42.584;23.366;2023-06-04T04:41:00;21.10;;;13.32;;
66593;SDS011;53450;42.584;23.366;2023-06-04T04:43:32;20.80;;;13.57;;
66593;SDS011;53450;42.584;23.366;2023-06-04T04:46:07;17.40;;;13.07;;
66593;SDS011;53450;42.584;23.366;2023-06-04T04:48:34;16.13;;;13.15;;
66593;SDS011;53450;42.584;23.366;2023-06-04T04:50:59;20.38;;;13.35;;
66593;SDS011;53450;42.584;23.366;2023-06-04T04:53:25;24.10;;;14.10;;
66593;SDS011;53450;42.584;23.366;2023-06-04T04:55:51;17.88;;;13.60;;
66593;SDS011;53450;42.584;23.366;2023-06-04T04:58:17;15.38;;;12.50;;
66593;SDS011;53450;42.584;23.366;2023-06-04T05:00:43;15.88;;;11.82;;
66593;SDS011;53450;42.584;23.366;2023-06-04T05:03:09;12.48;;;10.77;;
66593;SDS011;53450;42.584;23.366;2023-06-04T05:05:35;16.23;;;11.13;;
66593;SDS011;53450;42.584;23.366;2023-06-04T05:08:03;14.93;;;13.10;;
66593;SDS011;53450;42.584;23.366;2023-06-04T05:10:33;12.90;;;11.25;;
66593;SDS011;53450;42.584;23.366;2023-06-04T05:13:02;14.35;;;11.07;;
66593;SDS011;53450;42.584;23.366;2023-06-04T05:15:35;11.85;;;9.52;;
66593;SDS011;53450;42.584;23.366;2023-06-04T05:18:26;15.15;;;11.13;;
66593;SDS011;53450;42.584;23.366;2023-06-04T05:21:20;14.55;;;10.13;;
66593;SDS011;53450;42.584;23.366;2023-06-04T05:23:55;17.17;;;9.95;;
66593;SDS011;53450;42.584;23.366;2023-06-04T05:26:25;14.82;;;11.13;;
66593;SDS011;53450;42.584;23.366;2023-06-04T05:29:18;13.73;;;10.52;;
66593;SDS011;53450;42.584;23.366;2023-06-04T05:32:09;12.98;;;10.63;;
66593;SDS011;53450;42.584;23.366;2023-06-04T05:34:35;17.10;;;10.13;;
66593;SDS011;53450;42.584;23.366;2023-06-04T05:37:04;14.88;;;10.38;;
66593;SDS011;53450;42.584;23.366;2023-06-04T05:39:34;17.77;;;11.20;;
66593;SDS011;53450;42.584;23.366;2023-06-04T05:42:09;13.13;;;10.55;;
66593;SDS011;53450;42.584;23.366;2023-06-04T05:44:35;16.58;;;10.98;;
66593;SDS011;53450;42.584;23.366;2023-06-04T05:47:01;14.70;;;10.18;;
66593;SDS011;53450;42.584;23.366;2023-06-04T05:49:28;14.27;;;10.90;;
66593;SDS011;53450;42.584;23.366;2023-06-04T05:51:56;15.80;;;11.00;;
66593;SDS011;53450;42.584;23.366;2023-06-04T05:54:23;15.40;;;11.80;;
66593;SDS011;53450;42.584;23.366;2023-06-04T05:56:49;22.20;;;11.65;;
66593;SDS011;53450;42.584;23.366;2023-06-04T05:59:15;19.55;;;11.85;;
66593;SDS011;53450;42.584;23.366;2023-06-04T06:01:41;15.00;;;11.23;;
66593;SDS011;53450;42.584;23.366;2023-06-04T06:04:08;16.85;;;10.18;;
66593;SDS011;53450;42.584;23.366;2023-06-04T06:06:35;14.57;;;11.23;;
66593;SDS011;53450;42.584;23.366;2023-06-04T06:09:02;14.75;;;11.13;;
66593;SDS011;53450;42.584;23.366;2023-06-04T06:11:29;18.60;;;11.27;;
66593;SDS011;53450;42.584;23.366;2023-06-04T06:13:55;15.80;;;10.80;;
66593;SDS011;53450;42.584;23.366;2023-06-04T06:16:21;15.90;;;12.15;;
66593;SDS011;53450;42.584;23.366;2023-06-04T06:18:47;19.38;;;11.93;;
66593;SDS011;53450;42.584;23.366;2023-06-04T06:21:13;16.13;;;11.55;;
66593;SDS011;53450;42.584;23.366;2023-06-04T06:23:39;20.98;;;12.23;;
66593;SDS011;53450;42.584;23.366;2023-06-04T06:26:05;17.55;;;12.15;;
66593;SDS011;53450;42.584;23.366;2023-06-04T06:28:37;23.60;;;12.68;;
66593;SDS011;53450;42.584;23.366;2023-06-04T06:31:05;15.98;;;11.50;;
66593;SDS011;53450;42.584;23.366;2023-06-04T06:33:31;20.15;;;11.70;;
66593;SDS011;53450;42.584;23.366;2023-06-04T06:35:57;18.17;;;12.60;;
66593;SDS011;53450;42.584;23.366;2023-06-04T06:38:25;17.38;;;13.15;;
66593;SDS011;53450;42.584;23.366;2023-06-04T06:41:17;20.23;;;14.40;;
66593;SDS011;53450;42.584;23.366;2023-06-04T06:44:07;24.90;;;13.93;;
66593;SDS011;53450;42.584;23.366;2023-06-04T06:46:33;20.17;;;13.90;;
66593;SDS011;53450;42.584;23.366;2023-06-04T06:48:59;21.20;;;13.38;;
66593;SDS011;53450;42.584;23.366;2023-06-04T06:51:24;23.17;;;14.10;;
66593;SDS011;53450;42.584;23.366;2023-06-04T06:53:50;22.95;;;14.52;;
66593;SDS011;53450;42.584;23.366;2023-06-04T06:56:41;22.33;;;13.27;;
66593;SDS011;53450;42.584;23.366;2023-06-04T06:59:31;22.20;;;14.05;;
66593;SDS011;53450;42.584;23.366;2023-06-04T07:01:57;22.17;;;14.07;;
66593;SDS011;53450;42.584;23.366;2023-06-04T07:04:22;25.75;;;14.65;;
66593;SDS011;53450;42.584;23.366;2023-06-04T07:06:48;25.60;;;15.18;;
66593;SDS011;53450;42.584;23.366;2023-06-04T07:09:13;27.02;;;15.10;;
66593;SDS011;53450;42.584;23.366;2023-06-04T07:12:04;26.85;;;15.25;;
66593;SDS011;53450;42.584;23.366;2023-06-04T07:14:56;26.73;;;15.00;;
66593;SDS011;53450;42.584;23.366;2023-06-04T07:17:22;20.38;;;14.50;;
66593;SDS011;53450;42.584;23.366;2023-06-04T07:19:47;22.58;;;15.65;;
66593;SDS011;53450;42.584;23.366;2023-06-04T07:22:13;23.83;;;15.85;;
66593;SDS011;53450;42.584;23.366;2023-06-04T07:24:41;24.33;;;15.32;;
66593;SDS011;53450;42.584;23.366;2023-06-04T07:27:13;20.95;;;13.75;;
66593;SDS011;53450;42.584;23.366;2023-06-04T07:29:39;19.05;;;13.60;;
66593;SDS011;53450;42.584;23.366;2023-06-04T07:32:07;23.98;;;13.90;;
66593;SDS011;53450;42.584;23.366;2023-06-04T07:34:33;19.73;;;12.43;;
66593;SDS011;53450;42.584;23.366;2023-06-04T07:36:58;19.30;;;11.60;;
66593;SDS011;53450;42.584;23.366;2023-06-04T07:39:24;20.63;;;12.98;;
66593;SDS011;53450;42.584;23.366;2023-06-04T07:41:50;19.67;;;12.43;;
66593;SDS011;53450;42.584;23.366;2023-06-04T07:44:15;22.08;;;12.73;;
66593;SDS011;53450;42.584;23.366;2023-06-04T07:46:41;19.77;;;12.20;;
66593;SDS011;53450;42.584;23.366;2023-06-04T07:49:06;16.25;;;12.10;;
66593;SDS011;53450;42.584;23.366;2023-06-04T07:51:33;18.17;;;12.32;;
66593;SDS011;53450;42.584;23.366;2023-06-04T07:54:25;20.63;;;12.82;;
66593;SDS011;53450;42.584;23.366;2023-06-04T07:57:16;20.83;;;13.18;;
66593;SDS011;53450;42.584;23.366;2023-06-04T07:59:42;19.67;;;13.63;;
66593;SDS011;53450;42.584;23.366;2023-06-04T08:02:07;17.52;;;11.70;;
66593;SDS011;53450;42.584;23.366;2023-06-04T08:04:33;19.52;;;11.07;;
66593;SDS011;53450;42.584;23.366;2023-06-04T08:06:59;17.63;;;11.75;;
66593;SDS011;53450;42.584;23.366;2023-06-04T08:09:25;18.08;;;11.77;;
66593;SDS011;53450;42.584;23.366;2023-06-04T08:11:50;19.90;;;13.38;;
66593;SDS011;53450;42.584;23.366;2023-06-04T08:14:16;26.35;;;16.42;;
66593;SDS011;53450;42.584;23.366;2023-06-04T08:16:42;23.45;;;15.77;;
66593;SDS011;53450;42.584;23.366;2023-06-04T08:19:07;26.13;;;15.85;;
66593;SDS011;53450;42.584;23.366;2023-06-04T08:21:33;23.05;;;15.00;;
66593;SDS011;53450;42.584;23.366;2023-06-04T08:23:59;23.05;;;14.80;;
66593;SDS011;53450;42.584;23.366;2023-06-04T08:26:25;23.02;;;14.02;;
66593;SDS011;53450;42.584;23.366;2023-06-04T08:28:52;21.95;;;13.30;;
66593;SDS011;53450;42.584;23.366;2023-06-04T08:31:18;21.73;;;14.38;;
66593;SDS011;53450;42.584;23.366;2023-06-04T08:33:47;15.95;;;12.07;;
66593;SDS011;53450;42.584;23.366;2023-06-04T08:36:13;19.70;;;12.73;;
66593;SDS011;53450;42.584;23.366;2023-06-04T08:38:39;19.60;;;11.65;;
66593;SDS011;53450;42.584;23.366;2023-06-04T08:41:10;19.63;;;12.52;;
66593;SDS011;53450;42.584;23.366;2023-06-04T08:43:41;18.42;;;11.02;;
66593;SDS011;53450;42.584;23.366;2023-06-04T08:46:10;13.65;;;10.30;;
66593;SDS011;53450;42.584;23.366;2023-06-04T08:48:37;14.82;;;10.85;;
66593;SDS011;53450;42.584;23.366;2023-06-04T08:51:03;16.38;;;10.13;;
66593;SDS011;53450;42.584;23.366;2023-06-04T08:53:59;12.43;;;8.95;;
66593;SDS011;53450;42.584;23.366;2023-06-04T08:56:25;13.27;;;9.55;;
66593;SDS011;53450;42.584;23.366;2023-06-04T08:58:56;27.48;;;16.05;;
66593;SDS011;53450;42.584;23.366;2023-06-04T09:01:29;18.17;;;10.05;;
66593;SDS011;53450;42.584;23.366;2023-06-04T09:04:00;16.02;;;10.52;;
66593;SDS011;53450;42.584;23.366;2023-06-04T09:06:34;12.88;;;9.60;;
66593;SDS011;53450;42.584;23.366;2023-06-04T09:09:03;16.83;;;9.82;;
66593;SDS011;53450;42.584;23.366;2023-06-04T09:11:39;16.38;;;9.63;;
66593;SDS011;53450;42.584;23.366;2023-06-04T09:14:34;15.63;;;9.20;;
66593;SDS011;53450;42.584;23.366;2023-06-04T09:17:00;15.73;;;9.95;;
66593;SDS011;53450;42.584;23.366;2023-06-04T09:19:25;23.23;;;11.57;;
66593;SDS011;53450;42.584;23.366;2023-06-04T09:24:17;15.55;;;10.45;;
66593;SDS011;53450;42.584;23.366;2023-06-04T09:26:44;17.80;;;10.70;;
66593;SDS011;53450;42.584;23.366;2023-06-04T09:29:10;16.70;;;10.82;;
66593;SDS011;53450;42.584;23.366;2023-06-04T09:31:35;15.52;;;10.48;;
66593;SDS011;53450;42.584;23.366;2023-06-04T09:34:02;16.63;;;11.00;;
66593;SDS011;53450;42.584;23.366;2023-06-04T09:36:34;15.70;;;10.85;;
66593;SDS011;53450;42.584;23.366;2023-06-04T09:39:03;15.43;;;10.55;;
66593;SDS011;53450;42.584;23.366;2023-06-04T09:41:39;18.63;;;11.30;;
66593;SDS011;53450;42.584;23.366;2023-06-04T09:44:05;17.88;;;11.10;;
66593;SDS011;53450;42.584;23.366;2023-06-04T09:46:31;17.30;;;10.75;;
66593;SDS011;53450;42.584;23.366;2023-06-04T09:49:00;18.50;;;10.55;;
66593;SDS011;53450;42.584;23.366;2023-06-04T09:51:28;14.30;;;10.68;;
66593;SDS011;53450;42.584;23.366;2023-06-04T09:53:54;18.67;;;10.15;;
66593;SDS011;53450;42.584;23.366;2023-06-04T09:56:41;15.88;;;9.88;;
66593;SDS011;53450;42.584;23.366;2023-06-04T09:59:08;18.75;;;10.00;;
66593;SDS011;53450;42.584;23.366;2023-06-04T10:01:35;14.95;;;10.43;;
66593;SDS011;53450;42.584;23.366;2023-06-04T10:04:06;19.80;;;11.85;;
66593;SDS011;53450;42.584;23.366;2023-06-04T10:06:33;13.63;;;9.57;;
66593;SDS011;53450;42.584;23.366;2023-06-04T10:09:07;15.45;;;9.00;;
66593;SDS011;53450;42.584;23.366;2023-06-04T10:11:44;16.70;;;9.25;;
66593;SDS011;53450;42.584;23.366;2023-06-04T10:14:25;18.75;;;8.40;;
66593;SDS011;53450;42.584;23.366;2023-06-04T10:16:57;11.77;;;9.70;;
66593;SDS011;53450;42.584;23.366;2023-06-04T10:19:23;13.57;;;8.70;;
66593;SDS011;53450;42.584;23.366;2023-06-04T10:21:50;13.65;;;8.50;;
66593;SDS011;53450;42.584;23.366;2023-06-04T10:24:15;15.60;;;8.50;;
66593;SDS011;53450;42.584;23.366;2023-06-04T10:26:42;10.90;;;8.15;;
66593;SDS011;53450;42.584;23.366;2023-06-04T10:29:08;16.42;;;8.40;;
66593;SDS011;53450;42.584;23.366;2023-06-04T10:31:34;13.20;;;8.70;;
66593;SDS011;53450;42.584;23.366;2023-06-04T10:34:02;12.98;;;7.53;;
66593;SDS011;53450;42.584;23.366;2023-06-04T10:36:54;12.63;;;8.88;;
66593;SDS011;53450;42.584;23.366;2023-06-04T10:39:27;14.52;;;8.77;;
66593;SDS011;53450;42.584;23.366;2023-06-04T10:44:42;14.25;;;7.50;;
66593;SDS011;53450;42.584;23.366;2023-06-04T10:49:51;13.73;;;6.78;;
66593;SDS011;53450;42.584;23.366;2023-06-04T10:52:17;11.63;;;6.78;;
66593;SDS011;53450;42.584;23.366;2023-06-04T10:54:44;11.80;;;6.40;;
66593;SDS011;53450;42.584;23.366;2023-06-04T10:57:11;10.43;;;6.90;;
66593;SDS011;53450;42.584;23.366;2023-06-04T11:00:03;9.13;;;6.43;;
66593;SDS011;53450;42.584;23.366;2023-06-04T11:02:59;10.57;;;6.20;;
66593;SDS011;53450;42.584;23.366;2023-06-04T11:05:39;13.05;;;6.45;;
66593;SDS011;53450;42.584;23.366;2023-06-04T11:08:06;9.02;;;6.72;;
66593;SDS011;53450;42.584;23.366;2023-06-04T11:10:33;15.07;;;6.50;;
66593;SDS011;53450;42.584;23.366;2023-06-04T11:13:04;8.70;;;6.10;;
66593;SDS011;53450;42.584;23.366;2023-06-04T11:18:15;11.18;;;5.75;;
66593;SDS011;53450;42.584;23.366;2023-06-04T11:20:45;15.60;;;6.90;;
66593;SDS011;53450;42.584;23.366;2023-06-04T11:23:12;15.50;;;5.63;;
66593;SDS011;53450;42.584;23.366;2023-06-04T11:25:40;8.35;;;6.13;;
66593;SDS011;53450;42.584;23.366;2023-06-04T11:28:08;10.30;;;6.13;;
66593;SDS011;53450;42.584;23.366;2023-06-04T11:30:39;22.52;;;7.13;;
66593;SDS011;53450;42.584;23.366;2023-06-04T11:33:04;8.05;;;6.55;;
66593;SDS011;53450;42.584;23.366;2023-06-04T11:35:31;8.90;;;7.00;;
66593;SDS011;53450;42.584;23.366;2023-06-04T11:38:05;8.68;;;6.97;;
66593;SDS011;53450;42.584;23.366;2023-06-04T11:40:31;8.90;;;7.43;;
66593;SDS011;53450;42.584;23.366;2023-06-04T11:42:56;12.52;;;7.70;;
66593;SDS011;53450;42.584;23.366;2023-06-04T11:45:22;9.57;;;7.93;;
66593;SDS011;53450;42.584;23.366;2023-06-04T11:47:52;8.50;;;7.50;;
66593;SDS011;53450;42.584;23.366;2023-06-04T11:50:26;10.60;;;8.55;;
66593;SDS011;53450;42.584;23.366;2023-06-04T11:52:52;9.48;;;8.40;;
66593;SDS011;53450;42.584;23.366;2023-06-04T11:55:19;8.80;;;7.88;;
66593;SDS011;53450;42.584;23.366;2023-06-04T11:57:48;10.98;;;7.60;;
66593;SDS011;53450;42.584;23.366;2023-06-04T12:00:18;10.82;;;8.38;;
66593;SDS011;53450;42.584;23.366;2023-06-04T12:07:00;11.82;;;8.20;;
66593;SDS011;53450;42.584;23.366;2023-06-04T12:09:31;20.73;;;8.85;;
66593;SDS011;53450;42.584;23.366;2023-06-04T12:24:09;11.32;;;8.57;;
66593;SDS011;53450;42.584;23.366;2023-06-04T12:27:02;14.80;;;8.55;;
66593;SDS011;53450;42.584;23.366;2023-06-04T12:29:37;13.32;;;8.13;;
66593;SDS011;53450;42.584;23.366;2023-06-04T12:32:17;12.93;;;8.20;;
66593;SDS011;53450;42.584;23.366;2023-06-04T12:34:49;12.75;;;8.50;;
66593;SDS011;53450;42.584;23.366;2023-06-04T12:37:26;10.63;;;7.55;;
66593;SDS011;53450;42.584;23.366;2023-06-04T12:40:26;65.65;;;9.52;;
66593;SDS011;53450;42.584;23.366;2023-06-04T12:42:57;10.40;;;8.30;;
66593;SDS011;53450;42.584;23.366;2023-06-04T12:48:01;10.40;;;8.15;;
66593;SDS011;53450;42.584;23.366;2023-06-04T12:50:36;9.25;;;7.93;;
66593;SDS011;53450;42.584;23.366;2023-06-04T12:53:01;11.88;;;8.48;;
66593;SDS011;53450;42.584;23.366;2023-06-04T12:56:01;8.50;;;7.70;;
66593;SDS011;53450;42.584;23.366;2023-06-04T12:59:25;12.13;;;7.55;;
66593;SDS011;53450;42.584;23.366;2023-06-04T13:05:39;16.25;;;7.80;;
66593;SDS011;53450;42.584;23.366;2023-06-04T13:08:07;12.68;;;7.88;;
66593;SDS011;53450;42.584;23.366;2023-06-04T13:10:33;8.90;;;7.15;;
66593;SDS011;53450;42.584;23.366;2023-06-04T13:12:58;7.85;;;7.03;;
66593;SDS011;53450;42.584;23.366;2023-06-04T13:15:24;8.18;;;7.38;;
66593;SDS011;53450;42.584;23.366;2023-06-04T13:17:50;7.70;;;6.90;;
66593;SDS011;53450;42.584;23.366;2023-06-04T13:20:15;12.60;;;7.70;;
66593;SDS011;53450;42.584;23.366;2023-06-04T13:22:41;9.32;;;8.10;;
66593;SDS011;53450;42.584;23.366;2023-06-04T13:25:08;8.75;;;7.13;;
66593;SDS011;53450;42.584;23.366;2023-06-04T13:27:34;9.75;;;7.00;;
66593;SDS011;53450;42.584;23.366;2023-06-04T13:30:00;10.23;;;7.70;;
66593;SDS011;53450;42.584;23.366;2023-06-04T13:32:25;10.27;;;7.70;;
66593;SDS011;53450;42.584;23.366;2023-06-04T13:34:51;9.77;;;7.03;;
66593;SDS011;53450;42.584;23.366;2023-06-04T13:37:41;8.60;;;6.60;;
66593;SDS011;53450;42.584;23.366;2023-06-04T13:40:07;8.73;;;7.00;;
66593;SDS011;53450;42.584;23.366;2023-06-04T13:42:33;8.70;;;6.80;;
66593;SDS011;53450;42.584;23.366;2023-06-04T13:44:59;8.70;;;7.15;;
66593;SDS011;53450;42.584;23.366;2023-06-04T13:47:25;8.73;;;7.82;;
66593;SDS011;53450;42.584;23.366;2023-06-04T13:49:51;12.90;;;8.10;;
66593;SDS011;53450;42.584;23.366;2023-06-04T13:52:16;15.52;;;7.07;;
66593;SDS011;53450;42.584;23.366;2023-06-04T13:54:42;11.65;;;7.45;;
66593;SDS011;53450;42.584;23.366;2023-06-04T13:57:08;8.98;;;7.18;;
66593;SDS011;53450;42.584;23.366;2023-06-04T13:59:39;8.80;;;7.03;;
66593;SDS011;53450;42.584;23.366;2023-06-04T14:02:05;11.90;;;7.47;;
66593;SDS011;53450;42.584;23.366;2023-06-04T14:04:31;10.02;;;7.45;;
66593;SDS011;53450;42.584;23.366;2023-06-04T14:06:57;25.80;;;7.65;;
66593;SDS011;53450;42.584;23.366;2023-06-04T14:09:23;11.63;;;7.13;;
66593;SDS011;53450;42.584;23.366;2023-06-04T14:11:49;8.45;;;6.70;;
66593;SDS011;53450;42.584;23.366;2023-06-04T14:14:19;8.32;;;7.38;;
66593;SDS011;53450;42.584;23.366;2023-06-04T14:16:46;12.98;;;6.88;;
66593;SDS011;53450;42.584;23.366;2023-06-04T14:19:13;16.35;;;7.18;;
66593;SDS011;53450;42.584;23.366;2023-06-04T14:21:39;8.10;;;7.15;;
66593;SDS011;53450;42.584;23.366;2023-06-04T14:24:06;9.35;;;7.43;;
66593;SDS011;53450;42.584;23.366;2023-06-04T14:26:31;18.65;;;7.38;;
66593;SDS011;53450;42.584;23.366;2023-06-04T14:29:00;15.13;;;7.63;;
66593;SDS011;53450;42.584;23.366;2023-06-04T14:31:26;9.98;;;7.18;;
66593;SDS011;53450;42.584;23.366;2023-06-04T14:34:16;7.22;;;6.47;;
66593;SDS011;53450;42.584;23.366;2023-06-04T14:36:42;7.07;;;6.45;;
66593;SDS011;53450;42.584;23.366;2023-06-04T14:39:08;14.63;;;7.55;;
66593;SDS011;53450;42.584;23.366;2023-06-04T14:41:34;11.90;;;7.72;;
66593;SDS011;53450;42.584;23.366;2023-06-04T14:43:59;9.38;;;7.00;;
66593;SDS011;53450;42.584;23.366;2023-06-04T14:46:26;9.23;;;6.93;;
66593;SDS011;53450;42.584;23.366;2023-06-04T14:48:52;16.13;;;7.15;;
66593;SDS011;53450;42.584;23.366;2023-06-04T14:51:19;14.27;;;7.30;;
66593;SDS011;53450;42.584;23.366;2023-06-04T14:53:47;13.63;;;6.53;;
66593;SDS011;53450;42.584;23.366;2023-06-04T14:56:13;18.60;;;7.10;;
66593;SDS011;53450;42.584;23.366;2023-06-04T14:58:39;10.13;;;6.85;;
66593;SDS011;53450;42.584;23.366;2023-06-04T15:01:05;11.52;;;7.05;;
66593;SDS011;53450;42.584;23.366;2023-06-04T15:03:35;13.65;;;7.63;;
66593;SDS011;53450;42.584;23.366;2023-06-04T15:06:03;16.15;;;7.40;;
66593;SDS011;53450;42.584;23.366;2023-06-04T15:08:29;9.57;;;7.07;;
66593;SDS011;53450;42.584;23.366;2023-06-04T15:10:55;13.93;;;7.18;;
66593;SDS011;53450;42.584;23.366;2023-06-04T15:13:20;8.30;;;7.15;;